sensor_id;sensor_type;location;lat;lon;timestamp;pressure;altitude;pressure_sealevel;temperature
24586;BMP280;12743;52.262;6.172;2023-04-06T00:02:06;101092.97;;;4.51
24586;BMP280;12743;52.262;6.172;2023-04-06T00:04:33;101099.59;;;4.28
24586;BMP280;12743;52.262;6.172;2023-04-06T00:06:59;101087.13;;;4.25
24586;BMP280;12743;52.262;6.172;2023-04-06T00:09:26;101065.69;;;4.49
24586;BMP280;12743;52.262;6.172;2023-04-06T00:11:52;101071.78;;;4.29
24586;BMP280;12743;52.262;6.172;2023-04-06T00:14:19;101078.25;;;4.31
24586;BMP280;12743;52.262;6.172;2023-04-06T00:16:46;101078.53;;;4.25
24586;BMP280;12743;52.262;6.172;2023-04-06T00:19:13;101072.91;;;4.08
24586;BMP280;12743;52.262;6.172;2023-04-06T00:21:39;101060.69;;;4.08
24586;BMP280;12743;52.262;6.172;2023-04-06T00:24:06;101053.44;;;4.05
24586;BMP280;12743;52.262;6.172;2023-04-06T00:26:32;101043.59;;;3.97
24586;BMP280;12743;52.262;6.172;2023-04-06T00:28:59;101039.41;;;4.01
24586;BMP280;12743;52.262;6.172;2023-04-06T00:31:26;101029.03;;;3.96
24586;BMP280;12743;52.262;6.172;2023-04-06T00:33:52;101031.84;;;4.05
24586;BMP280;12743;52.262;6.172;2023-04-06T00:36:19;101024.09;;;4.00
24586;BMP280;12743;52.262;6.172;2023-04-06T00:38:45;101033.16;;;4.02
24586;BMP280;12743;52.262;6.172;2023-04-06T00:41:12;101029.53;;;4.03
24586;BMP280;12743;52.262;6.172;2023-04-06T00:43:39;101007.75;;;3.94
24586;BMP280;12743;52.262;6.172;2023-04-06T00:46:05;101024.34;;;4.03
24586;BMP280;12743;52.262;6.172;2023-04-06T00:48:32;101033.19;;;3.97
24586;BMP280;12743;52.262;6.172;2023-04-06T00:51:01;101029.34;;;3.90
24586;BMP280;12743;52.262;6.172;2023-04-06T00:53:27;101024.66;;;3.92
24586;BMP280;12743;52.262;6.172;2023-04-06T00:55:55;101012.47;;;3.87
24586;BMP280;12743;52.262;6.172;2023-04-06T00:58:22;101001.06;;;3.73
24586;BMP280;12743;52.262;6.172;2023-04-06T01:00:54;101003.91;;;3.81
24586;BMP280;12743;52.262;6.172;2023-04-06T01:03:22;101010.75;;;3.67
24586;BMP280;12743;52.262;6.172;2023-04-06T01:05:48;100973.00;;;3.80
24586;BMP280;12743;52.262;6.172;2023-04-06T01:08:20;100989.44;;;3.70
24586;BMP280;12743;52.262;6.172;2023-04-06T01:10:50;100994.91;;;3.64
24586;BMP280;12743;52.262;6.172;2023-04-06T01:13:24;100958.56;;;3.54
24586;BMP280;12743;52.262;6.172;2023-04-06T01:15:58;100980.78;;;3.80
24586;BMP280;12743;52.262;6.172;2023-04-06T01:18:43;100992.72;;;3.81
24586;BMP280;12743;52.262;6.172;2023-04-06T01:21:15;100980.28;;;3.73
24586;BMP280;12743;52.262;6.172;2023-04-06T01:23:59;100975.34;;;3.71
24586;BMP280;12743;52.262;6.172;2023-04-06T01:26:33;100989.19;;;3.62
24586;BMP280;12743;52.262;6.172;2023-04-06T01:29:05;100910.09;;;3.44
24586;BMP280;12743;52.262;6.172;2023-04-06T01:31:32;100955.94;;;3.64
24586;BMP280;12743;52.262;6.172;2023-04-06T01:33:59;100957.78;;;3.53
24586;BMP280;12743;52.262;6.172;2023-04-06T01:36:26;100955.41;;;3.62
24586;BMP280;12743;52.262;6.172;2023-04-06T01:39:11;100952.59;;;3.53
24586;BMP280;12743;52.262;6.172;2023-04-06T01:41:39;100927.56;;;3.77
24586;BMP280;12743;52.262;6.172;2023-04-06T01:44:06;100948.94;;;3.59
24586;BMP280;12743;52.262;6.172;2023-04-06T01:46:32;100954.22;;;3.44
24586;BMP280;12743;52.262;6.172;2023-04-06T01:49:01;100940.41;;;3.54
24586;BMP280;12743;52.262;6.172;2023-04-06T01:51:36;100942.25;;;3.43
24586;BMP280;12743;52.262;6.172;2023-04-06T01:54:06;100920.09;;;3.66
24586;BMP280;12743;52.262;6.172;2023-04-06T01:56:58;100943.22;;;3.67
24586;BMP280;12743;52.262;6.172;2023-04-06T01:59:45;100955.84;;;3.20
24586;BMP280;12743;52.262;6.172;2023-04-06T02:02:21;100934.00;;;3.31
24586;BMP280;12743;52.262;6.172;2023-04-06T02:04:57;100924.13;;;3.28
24586;BMP280;12743;52.262;6.172;2023-04-06T02:07:24;100911.91;;;3.28
24586;BMP280;12743;52.262;6.172;2023-04-06T02:09:54;100914.41;;;3.59
24586;BMP280;12743;52.262;6.172;2023-04-06T02:12:28;100910.63;;;3.36
24586;BMP280;12743;52.262;6.172;2023-04-06T02:14:55;100895.13;;;3.11
24586;BMP280;12743;52.262;6.172;2023-04-06T02:17:21;100907.06;;;3.07
24586;BMP280;12743;52.262;6.172;2023-04-06T02:19:48;100917.19;;;3.03
24586;BMP280;12743;52.262;6.172;2023-04-06T02:22:14;100896.44;;;3.03
24586;BMP280;12743;52.262;6.172;2023-04-06T02:24:41;100906.31;;;3.01
24586;BMP280;12743;52.262;6.172;2023-04-06T02:27:07;100900.09;;;2.92
24586;BMP280;12743;52.262;6.172;2023-04-06T02:29:34;100876.97;;;3.11
24586;BMP280;12743;52.262;6.172;2023-04-06T02:32:02;100903.94;;;3.15
24586;BMP280;12743;52.262;6.172;2023-04-06T02:34:31;100891.81;;;2.90
24586;BMP280;12743;52.262;6.172;2023-04-06T02:36:58;100888.47;;;2.85
24586;BMP280;12743;52.262;6.172;2023-04-06T02:39:25;100886.91;;;2.84
24586;BMP280;12743;52.262;6.172;2023-04-06T02:41:52;100852.44;;;2.68
24586;BMP280;12743;52.262;6.172;2023-04-06T02:44:22;100878.59;;;2.66
24586;BMP280;12743;52.262;6.172;2023-04-06T02:46:48;100871.03;;;2.95
24586;BMP280;12743;52.262;6.172;2023-04-06T02:49:15;100855.44;;;3.05
24586;BMP280;12743;52.262;6.172;2023-04-06T02:51:42;100868.63;;;3.19
24586;BMP280;12743;52.262;6.172;2023-04-06T02:54:19;100886.03;;;3.13
24586;BMP280;12743;52.262;6.172;2023-04-06T02:56:46;100881.94;;;2.97
24586;BMP280;12743;52.262;6.172;2023-04-06T02:59:13;100865.06;;;3.00
24586;BMP280;12743;52.262;6.172;2023-04-06T03:01:45;100868.66;;;3.14
24586;BMP280;12743;52.262;6.172;2023-04-06T03:04:12;100874.66;;;3.04
24586;BMP280;12743;52.262;6.172;2023-04-06T03:06:39;100850.06;;;2.82
24586;BMP280;12743;52.262;6.172;2023-04-06T03:09:16;100863.81;;;2.82
24586;BMP280;12743;52.262;6.172;2023-04-06T03:11:43;100814.38;;;2.58
24586;BMP280;12743;52.262;6.172;2023-04-06T03:14:10;100850.06;;;2.77
24586;BMP280;12743;52.262;6.172;2023-04-06T03:16:37;100842.81;;;2.68
24586;BMP280;12743;52.262;6.172;2023-04-06T03:19:03;100855.78;;;2.68
24586;BMP280;12743;52.262;6.172;2023-04-06T03:21:33;100852.44;;;2.68
24586;BMP280;12743;52.262;6.172;2023-04-06T03:24:00;100841.81;;;2.64
24586;BMP280;12743;52.262;6.172;2023-04-06T03:26:26;100834.31;;;2.58
24586;BMP280;12743;52.262;6.172;2023-04-06T03:28:53;100831.94;;;2.66
24586;BMP280;12743;52.262;6.172;2023-04-06T03:31:28;100831.94;;;2.72
24586;BMP280;12743;52.262;6.172;2023-04-06T03:34:04;100836.59;;;2.75
24586;BMP280;12743;52.262;6.172;2023-04-06T03:36:34;100831.41;;;2.69
24586;BMP280;12743;52.262;6.172;2023-04-06T03:39:02;100848.03;;;2.63
24586;BMP280;12743;52.262;6.172;2023-04-06T03:41:32;100836.66;;;2.54
24586;BMP280;12743;52.262;6.172;2023-04-06T03:44:18;100827.06;;;2.50
24586;BMP280;12743;52.262;6.172;2023-04-06T03:46:46;100829.13;;;2.53
24586;BMP280;12743;52.262;6.172;2023-04-06T03:49:12;100764.66;;;2.11
24586;BMP280;12743;52.262;6.172;2023-04-06T03:51:42;100817.97;;;2.52
24586;BMP280;12743;52.262;6.172;2023-04-06T03:54:09;100815.41;;;2.37
24586;BMP280;12743;52.262;6.172;2023-04-06T03:56:36;100816.94;;;2.53
24586;BMP280;12743;52.262;6.172;2023-04-06T03:59:02;100819.78;;;2.52
24586;BMP280;12743;52.262;6.172;2023-04-06T04:01:29;100832.53;;;2.38
24586;BMP280;12743;52.262;6.172;2023-04-06T04:03:56;100825.25;;;2.40
24586;BMP280;12743;52.262;6.172;2023-04-06T04:06:22;100820.84;;;2.31
24586;BMP280;12743;52.262;6.172;2023-04-06T04:08:49;100825.50;;;2.39
24586;BMP280;12743;52.262;6.172;2023-04-06T04:11:16;100812.78;;;2.42
24586;BMP280;12743;52.262;6.172;2023-04-06T04:13:46;100832.53;;;2.38
24586;BMP280;12743;52.262;6.172;2023-04-06T04:16:12;100811.78;;;2.43
24586;BMP280;12743;52.262;6.172;2023-04-06T04:18:40;100822.41;;;2.47
24586;BMP280;12743;52.262;6.172;2023-04-06T04:21:09;100820.06;;;2.30
24586;BMP280;12743;52.262;6.172;2023-04-06T04:23:36;100807.13;;;2.20
24586;BMP280;12743;52.262;6.172;2023-04-06T04:26:03;100823.16;;;2.42
24586;BMP280;12743;52.262;6.172;2023-04-06T04:28:30;100786.41;;;2.35
24586;BMP280;12743;52.262;6.172;2023-04-06T04:30:57;100840.78;;;2.30
24586;BMP280;12743;52.262;6.172;2023-04-06T04:33:23;100809.72;;;2.35
24586;BMP280;12743;52.262;6.172;2023-04-06T04:35:53;100817.47;;;2.40
24586;BMP280;12743;52.262;6.172;2023-04-06T04:38:22;100780.72;;;2.13
24586;BMP280;12743;52.262;6.172;2023-04-06T04:40:52;100788.72;;;2.06
24586;BMP280;12743;52.262;6.172;2023-04-06T04:43:18;100809.22;;;2.28
24586;BMP280;12743;52.262;6.172;2023-04-06T04:45:45;100816.72;;;2.35
24586;BMP280;12743;52.262;6.172;2023-04-06T04:48:22;100823.97;;;2.48
24586;BMP280;12743;52.262;6.172;2023-04-06T04:50:53;100832.78;;;2.42
24586;BMP280;12743;52.262;6.172;2023-04-06T04:53:24;100817.25;;;2.22
24586;BMP280;12743;52.262;6.172;2023-04-06T04:55:57;100832.78;;;2.42
24586;BMP280;12743;52.262;6.172;2023-04-06T04:58:25;100818.50;;;2.29
24586;BMP280;12743;52.262;6.172;2023-04-06T05:00:55;100794.69;;;1.97
24586;BMP280;12743;52.262;6.172;2023-04-06T05:03:24;100852.72;;;2.36
24586;BMP280;12743;52.262;6.172;2023-04-06T05:05:57;100854.03;;;2.24
24586;BMP280;12743;52.262;6.172;2023-04-06T05:08:27;100844.16;;;2.36
24586;BMP280;12743;52.262;6.172;2023-04-06T05:10:54;100847.03;;;2.44
24586;BMP280;12743;52.262;6.172;2023-04-06T05:13:21;100870.09;;;2.31
24586;BMP280;12743;52.262;6.172;2023-04-06T05:15:50;100856.09;;;2.37
24586;BMP280;12743;52.262;6.172;2023-04-06T05:18:26;100860.75;;;2.20
24586;BMP280;12743;52.262;6.172;2023-04-06T05:20:54;100858.94;;;2.10
24586;BMP280;12743;52.262;6.172;2023-04-06T05:23:28;100850.69;;;2.28
24586;BMP280;12743;52.262;6.172;2023-04-06T05:25:56;100862.84;;;2.18
24586;BMP280;12743;52.262;6.172;2023-04-06T05:28:22;100852.72;;;2.26
24586;BMP280;12743;52.262;6.172;2023-04-06T05:30:49;100855.56;;;2.30
24586;BMP280;12743;52.262;6.172;2023-04-06T05:33:16;100853.75;;;2.40
24586;BMP280;12743;52.262;6.172;2023-04-06T05:36:01;100842.59;;;2.50
24586;BMP280;12743;52.262;6.172;2023-04-06T05:38:28;100821.13;;;2.24
24586;BMP280;12743;52.262;6.172;2023-04-06T05:40:58;100846.25;;;2.13
24586;BMP280;12743;52.262;6.172;2023-04-06T05:43:29;100858.16;;;2.30
24586;BMP280;12743;52.262;6.172;2023-04-06T05:45:57;100862.06;;;2.27
24586;BMP280;12743;52.262;6.172;2023-04-06T05:48:25;100801.69;;;2.06
24586;BMP280;12743;52.262;6.172;2023-04-06T05:50:52;100869.56;;;2.54
24586;BMP280;12743;52.262;6.172;2023-04-06T05:53:25;100845.19;;;2.65
24586;BMP280;12743;52.262;6.172;2023-04-06T05:55:56;100830.69;;;2.49
24586;BMP280;12743;52.262;6.172;2023-04-06T05:58:24;100882.75;;;2.62
24586;BMP280;12743;52.262;6.172;2023-04-06T06:01:00;100896.25;;;2.69
24586;BMP280;12743;52.262;6.172;2023-04-06T06:03:35;100902.72;;;2.77
24586;BMP280;12743;52.262;6.172;2023-04-06T06:06:03;100898.56;;;2.91
24586;BMP280;12743;52.262;6.172;2023-04-06T06:08:51;100901.38;;;3.00
24586;BMP280;12743;52.262;6.172;2023-04-06T06:11:19;100925.25;;;2.97
24586;BMP280;12743;52.262;6.172;2023-04-06T06:13:47;100881.13;;;3.02
24586;BMP280;12743;52.262;6.172;2023-04-06T06:16:14;100937.38;;;3.21
24586;BMP280;12743;52.262;6.172;2023-04-06T06:18:44;100936.59;;;3.31
24586;BMP280;12743;52.262;6.172;2023-04-06T06:21:12;100937.88;;;3.28
24586;BMP280;12743;52.262;6.172;2023-04-06T06:23:39;100919.72;;;3.23
24586;BMP280;12743;52.262;6.172;2023-04-06T06:26:06;100945.31;;;3.55
24586;BMP280;12743;52.262;6.172;2023-04-06T06:28:32;100949.97;;;3.63
24586;BMP280;12743;52.262;6.172;2023-04-06T06:30:59;100935.88;;;3.74
24586;BMP280;12743;52.262;6.172;2023-04-06T06:33:28;100946.75;;;3.81
24586;BMP280;12743;52.262;6.172;2023-04-06T06:35:56;100946.78;;;3.76
24586;BMP280;12743;52.262;6.172;2023-04-06T06:38:23;100971.31;;;4.04
24586;BMP280;12743;52.262;6.172;2023-04-06T06:40:50;100940.47;;;3.93
24586;BMP280;12743;52.262;6.172;2023-04-06T06:43:17;100943.06;;;3.93
24586;BMP280;12743;52.262;6.172;2023-04-06T06:45:50;100989.31;;;4.34
24586;BMP280;12743;52.262;6.172;2023-04-06T06:48:17;100994.72;;;4.43
24586;BMP280;12743;52.262;6.172;2023-04-06T06:50:43;100999.19;;;4.71
24586;BMP280;12743;52.262;6.172;2023-04-06T06:53:11;101016.53;;;4.81
24586;BMP280;12743;52.262;6.172;2023-04-06T06:55:38;101025.94;;;5.06
24586;BMP280;12743;52.262;6.172;2023-04-06T06:58:05;101051.81;;;5.21
24586;BMP280;12743;52.262;6.172;2023-04-06T07:00:32;101030.88;;;5.31
24586;BMP280;12743;52.262;6.172;2023-04-06T07:02:59;101054.44;;;5.21
24586;BMP280;12743;52.262;6.172;2023-04-06T07:05:26;101043.31;;;5.10
24586;BMP280;12743;52.262;6.172;2023-04-06T07:07:56;101037.44;;;4.99
24586;BMP280;12743;52.262;6.172;2023-04-06T07:10:24;101033.84;;;4.95
24586;BMP280;12743;52.262;6.172;2023-04-06T07:12:51;101045.22;;;5.05
24586;BMP280;12743;52.262;6.172;2023-04-06T07:15:17;101029.22;;;5.16
24586;BMP280;12743;52.262;6.172;2023-04-06T07:17:44;101049.84;;;5.08
24586;BMP280;12743;52.262;6.172;2023-04-06T07:20:12;101029.66;;;4.94
24586;BMP280;12743;52.262;6.172;2023-04-06T07:22:39;101025.53;;;4.93
24586;BMP280;12743;52.262;6.172;2023-04-06T07:25:06;101061.63;;;5.29
24586;BMP280;12743;52.262;6.172;2023-04-06T07:27:33;101073.19;;;5.70
24586;BMP280;12743;52.262;6.172;2023-04-06T07:30:01;101068.50;;;5.91
24586;BMP280;12743;52.262;6.172;2023-04-06T07:32:27;101070.94;;;6.25
24586;BMP280;12743;52.262;6.172;2023-04-06T07:34:54;101092.03;;;6.04
24586;BMP280;12743;52.262;6.172;2023-04-06T07:37:21;101081.06;;;6.26
24586;BMP280;12743;52.262;6.172;2023-04-06T07:39:48;101078.94;;;6.65
24586;BMP280;12743;52.262;6.172;2023-04-06T07:42:15;101087.75;;;6.51
24586;BMP280;12743;52.262;6.172;2023-04-06T07:44:43;101084.72;;;6.44
24586;BMP280;12743;52.262;6.172;2023-04-06T07:47:10;101088.97;;;6.40
24586;BMP280;12743;52.262;6.172;2023-04-06T07:49:37;101085.38;;;6.36
24586;BMP280;12743;52.262;6.172;2023-04-06T07:52:04;101088.47;;;6.38
24586;BMP280;12743;52.262;6.172;2023-04-06T07:54:32;101079.78;;;6.61
24586;BMP280;12743;52.262;6.172;2023-04-06T07:56:58;101075.59;;;6.60
24586;BMP280;12743;52.262;6.172;2023-04-06T07:59:25;101055.09;;;6.53
24586;BMP280;12743;52.262;6.172;2023-04-06T08:01:52;101083.47;;;6.73
24586;BMP280;12743;52.262;6.172;2023-04-06T08:04:20;101071.91;;;6.93
24586;BMP280;12743;52.262;6.172;2023-04-06T08:06:46;101076.69;;;7.05
24586;BMP280;12743;52.262;6.172;2023-04-06T08:09:13;101083.50;;;7.33
24586;BMP280;12743;52.262;6.172;2023-04-06T08:11:39;101079.53;;;7.35
24586;BMP280;12743;52.262;6.172;2023-04-06T08:14:06;101082.03;;;7.40
24586;BMP280;12743;52.262;6.172;2023-04-06T08:16:33;101078.47;;;7.23
24586;BMP280;12743;52.262;6.172;2023-04-06T08:19:00;101042.25;;;7.16
24586;BMP280;12743;52.262;6.172;2023-04-06T08:21:26;101078.00;;;7.34
24586;BMP280;12743;52.262;6.172;2023-04-06T08:23:52;101093.38;;;7.36
24586;BMP280;12743;52.262;6.172;2023-04-06T08:26:19;101079.25;;;7.51
24586;BMP280;12743;52.262;6.172;2023-04-06T08:28:46;101090.09;;;7.44
24586;BMP280;12743;52.262;6.172;2023-04-06T08:31:12;101077.69;;;7.50
24586;BMP280;12743;52.262;6.172;2023-04-06T08:33:39;101085.72;;;7.80
24586;BMP280;12743;52.262;6.172;2023-04-06T08:36:07;101085.56;;;7.99
24586;BMP280;12743;52.262;6.172;2023-04-06T08:38:34;101067.41;;;7.94
24586;BMP280;12743;52.262;6.172;2023-04-06T08:41:07;101089.28;;;8.20
24586;BMP280;12743;52.262;6.172;2023-04-06T08:43:37;101087.31;;;8.03
24586;BMP280;12743;52.262;6.172;2023-04-06T08:46:05;101088.13;;;8.26
24586;BMP280;12743;52.262;6.172;2023-04-06T08:48:32;101079.97;;;8.28
24586;BMP280;12743;52.262;6.172;2023-04-06T08:50:59;101077.03;;;8.29
24586;BMP280;12743;52.262;6.172;2023-04-06T08:53:26;101070.75;;;8.30
24586;BMP280;12743;52.262;6.172;2023-04-06T08:55:52;101079.81;;;8.46
24586;BMP280;12743;52.262;6.172;2023-04-06T08:58:20;101078.88;;;8.29
24586;BMP280;12743;52.262;6.172;2023-04-06T09:01:06;101078.72;;;8.25
24586;BMP280;12743;52.262;6.172;2023-04-06T09:03:37;101075.41;;;8.33
24586;BMP280;12743;52.262;6.172;2023-04-06T09:06:05;101076.22;;;8.42
24586;BMP280;12743;52.262;6.172;2023-04-06T09:08:33;101078.94;;;8.59
24586;BMP280;12743;52.262;6.172;2023-04-06T09:11:02;101086.78;;;8.59
24586;BMP280;12743;52.262;6.172;2023-04-06T09:13:28;101086.88;;;8.46
24586;BMP280;12743;52.262;6.172;2023-04-06T09:16:02;101079.59;;;8.65
24586;BMP280;12743;52.262;6.172;2023-04-06T09:18:31;101083.88;;;8.61
24586;BMP280;12743;52.262;6.172;2023-04-06T09:21:02;101081.72;;;8.85
24586;BMP280;12743;52.262;6.172;2023-04-06T09:23:29;101089.25;;;8.87
24586;BMP280;12743;52.262;6.172;2023-04-06T09:26:13;101080.50;;;8.91
24586;BMP280;12743;52.262;6.172;2023-04-06T09:31:16;101080.69;;;8.95
24586;BMP280;12743;52.262;6.172;2023-04-06T09:33:45;101076.56;;;9.02
24586;BMP280;12743;52.262;6.172;2023-04-06T09:36:12;101054.81;;;8.93
24586;BMP280;12743;52.262;6.172;2023-04-06T09:38:55;101075.34;;;9.08
24586;BMP280;12743;52.262;6.172;2023-04-06T09:41:29;101078.06;;;8.95
24586;BMP280;12743;52.262;6.172;2023-04-06T09:44:09;101052.78;;;8.90
24586;BMP280;12743;52.262;6.172;2023-04-06T09:46:38;101071.84;;;9.13
24586;BMP280;12743;52.262;6.172;2023-04-06T09:49:27;101078.97;;;9.38
24586;BMP280;12743;52.262;6.172;2023-04-06T09:51:57;101080.13;;;9.15
24586;BMP280;12743;52.262;6.172;2023-04-06T09:54:28;101075.06;;;9.18
24586;BMP280;12743;52.262;6.172;2023-04-06T09:59:44;101070.97;;;9.43
24586;BMP280;12743;52.262;6.172;2023-04-06T10:05:32;101066.59;;;9.69
24586;BMP280;12743;52.262;6.172;2023-04-06T10:08:04;101040.78;;;9.71
24586;BMP280;12743;52.262;6.172;2023-04-06T10:10:31;101063.16;;;10.20
24586;BMP280;12743;52.262;6.172;2023-04-06T10:12:58;101036.19;;;9.85
24586;BMP280;12743;52.262;6.172;2023-04-06T10:15:27;101076.44;;;10.15
24586;BMP280;12743;52.262;6.172;2023-04-06T10:17:54;101059.31;;;10.18
24586;BMP280;12743;52.262;6.172;2023-04-06T10:20:24;101067.03;;;10.05
24586;BMP280;12743;52.262;6.172;2023-04-06T10:25:28;101072.25;;;10.31
24586;BMP280;12743;52.262;6.172;2023-04-06T10:28:05;101068.69;;;10.44
24586;BMP280;12743;52.262;6.172;2023-04-06T10:30:33;101078.56;;;10.39
24586;BMP280;12743;52.262;6.172;2023-04-06T10:32:59;101051.09;;;10.45
24586;BMP280;12743;52.262;6.172;2023-04-06T10:35:38;101065.75;;;10.46
24586;BMP280;12743;52.262;6.172;2023-04-06T10:38:05;101056.19;;;10.33
24586;BMP280;12743;52.262;6.172;2023-04-06T10:40:35;101060.66;;;10.41
24586;BMP280;12743;52.262;6.172;2023-04-06T10:43:20;100996.34;;;10.00
24586;BMP280;12743;52.262;6.172;2023-04-06T10:45:57;101065.75;;;10.29
24586;BMP280;12743;52.262;6.172;2023-04-06T10:48:42;101005.47;;;9.94
24586;BMP280;12743;52.262;6.172;2023-04-06T10:51:14;101058.97;;;10.36
24586;BMP280;12743;52.262;6.172;2023-04-06T10:53:42;101061.91;;;10.26
24586;BMP280;12743;52.262;6.172;2023-04-06T10:56:14;101065.00;;;10.28
24586;BMP280;12743;52.262;6.172;2023-04-06T10:58:48;101055.72;;;10.31
24586;BMP280;12743;52.262;6.172;2023-04-06T11:01:16;101060.38;;;10.25
24586;BMP280;12743;52.262;6.172;2023-04-06T11:03:48;101053.09;;;10.31
24586;BMP280;12743;52.262;6.172;2023-04-06T11:06:33;101065.16;;;10.32
24586;BMP280;12743;52.262;6.172;2023-04-06T11:09:00;101063.59;;;10.31
24586;BMP280;12743;52.262;6.172;2023-04-06T11:11:26;101039.66;;;10.24
24586;BMP280;12743;52.262;6.172;2023-04-06T11:13:57;101057.56;;;10.39
24586;BMP280;12743;52.262;6.172;2023-04-06T11:16:28;101068.16;;;10.59
24586;BMP280;12743;52.262;6.172;2023-04-06T11:18:58;101068.28;;;10.63
24586;BMP280;12743;52.262;6.172;2023-04-06T11:21:41;101066.09;;;10.36
24586;BMP280;12743;52.262;6.172;2023-04-06T11:24:11;101071.34;;;10.27
24586;BMP280;12743;52.262;6.172;2023-04-06T11:26:45;101066.69;;;10.24
24586;BMP280;12743;52.262;6.172;2023-04-06T11:29:19;101024.25;;;9.96
24586;BMP280;12743;52.262;6.172;2023-04-06T11:31:48;101066.09;;;10.27
24586;BMP280;12743;52.262;6.172;2023-04-06T11:34:19;101065.16;;;10.32
24586;BMP280;12743;52.262;6.172;2023-04-06T11:36:47;101050.34;;;10.36
24586;BMP280;12743;52.262;6.172;2023-04-06T11:39:19;101037.06;;;10.15
24586;BMP280;12743;52.262;6.172;2023-04-06T11:41:49;101058.38;;;10.22
24586;BMP280;12743;52.262;6.172;2023-04-06T11:44:32;101046.13;;;10.43
24586;BMP280;12743;52.262;6.172;2023-04-06T11:47:00;101045.97;;;10.40
24586;BMP280;12743;52.262;6.172;2023-04-06T11:49:28;101041.03;;;10.30
24586;BMP280;12743;52.262;6.172;2023-04-06T11:51:56;101043.63;;;10.47
24586;BMP280;12743;52.262;6.172;2023-04-06T11:54:34;101044.13;;;10.40
24586;BMP280;12743;52.262;6.172;2023-04-06T11:57:01;101032.38;;;10.38
24586;BMP280;12743;52.262;6.172;2023-04-06T11:59:28;101032.50;;;10.50
24586;BMP280;12743;52.262;6.172;2023-04-06T12:01:57;101037.19;;;10.44
24586;BMP280;12743;52.262;6.172;2023-04-06T12:04:23;101034.97;;;10.55
24586;BMP280;12743;52.262;6.172;2023-04-06T12:06:50;101030.00;;;10.62
24586;BMP280;12743;52.262;6.172;2023-04-06T12:09:17;101022.91;;;10.62
24586;BMP280;12743;52.262;6.172;2023-04-06T12:11:44;101024.47;;;10.46
24586;BMP280;12743;52.262;6.172;2023-04-06T12:14:11;100983.22;;;10.09
24586;BMP280;12743;52.262;6.172;2023-04-06T12:16:37;101019.69;;;10.40
24586;BMP280;12743;52.262;6.172;2023-04-06T12:19:04;101017.41;;;10.38
24586;BMP280;12743;52.262;6.172;2023-04-06T12:21:31;101023.44;;;10.39
24586;BMP280;12743;52.262;6.172;2023-04-06T12:23:58;101021.09;;;10.46
24586;BMP280;12743;52.262;6.172;2023-04-06T12:26:25;101014.31;;;10.36
24586;BMP280;12743;52.262;6.172;2023-04-06T12:28:52;101023.44;;;10.30
24586;BMP280;12743;52.262;6.172;2023-04-06T12:31:20;101026.22;;;10.34
24586;BMP280;12743;52.262;6.172;2023-04-06T12:33:49;101014.47;;;10.40
24586;BMP280;12743;52.262;6.172;2023-04-06T12:36:17;101009.84;;;10.37
24586;BMP280;12743;52.262;6.172;2023-04-06T12:38:47;101001.81;;;10.42
24586;BMP280;12743;52.262;6.172;2023-04-06T12:41:14;101004.56;;;10.45
24586;BMP280;12743;52.262;6.172;2023-04-06T12:43:41;101001.53;;;10.35
24586;BMP280;12743;52.262;6.172;2023-04-06T12:46:08;100990.41;;;10.21
24586;BMP280;12743;52.262;6.172;2023-04-06T12:48:35;100902.03;;;9.87
24586;BMP280;12743;52.262;6.172;2023-04-06T12:51:04;100923.44;;;10.15
24586;BMP280;12743;52.262;6.172;2023-04-06T12:53:32;100875.66;;;10.30
24586;BMP280;12743;52.262;6.172;2023-04-06T12:56:00;100879.75;;;10.19
24586;BMP280;12743;52.262;6.172;2023-04-06T12:58:26;100858.03;;;10.10
24586;BMP280;12743;52.262;6.172;2023-04-06T13:00:54;100816.38;;;9.99
24586;BMP280;12743;52.262;6.172;2023-04-06T13:03:22;100799.59;;;9.83
24586;BMP280;12743;52.262;6.172;2023-04-06T13:05:51;100763.44;;;9.97
24586;BMP280;12743;52.262;6.172;2023-04-06T13:08:19;100723.09;;;10.11
24586;BMP280;12743;52.262;6.172;2023-04-06T13:10:47;100683.84;;;10.14
24586;BMP280;12743;52.262;6.172;2023-04-06T13:13:14;100697.00;;;9.85
24586;BMP280;12743;52.262;6.172;2023-04-06T13:15:41;100637.75;;;9.84
24586;BMP280;12743;52.262;6.172;2023-04-06T13:18:08;100642.56;;;9.53
24586;BMP280;12743;52.262;6.172;2023-04-06T13:20:35;100589.91;;;9.37
24586;BMP280;12743;52.262;6.172;2023-04-06T13:23:01;100552.34;;;9.33
24586;BMP280;12743;52.262;6.172;2023-04-06T13:25:29;100504.06;;;9.55
24586;BMP280;12743;52.262;6.172;2023-04-06T13:27:55;100517.50;;;9.32
24586;BMP280;12743;52.262;6.172;2023-04-06T13:30:22;100491.59;;;9.31
24586;BMP280;12743;52.262;6.172;2023-04-06T13:32:49;100458.47;;;8.77
24586;BMP280;12743;52.262;6.172;2023-04-06T13:35:16;100483.31;;;9.00
24586;BMP280;12743;52.262;6.172;2023-04-06T13:37:43;100446.94;;;8.98
24586;BMP280;12743;52.262;6.172;2023-04-06T13:40:10;100414.13;;;8.71
24586;BMP280;12743;52.262;6.172;2023-04-06T13:42:38;100422.56;;;8.77
24586;BMP280;12743;52.262;6.172;2023-04-06T13:45:07;100406.94;;;8.89
24586;BMP280;12743;52.262;6.172;2023-04-06T13:47:34;100388.50;;;8.86
24586;BMP280;12743;52.262;6.172;2023-04-06T13:50:01;100383.44;;;8.81
24586;BMP280;12743;52.262;6.172;2023-04-06T13:52:27;100386.59;;;8.65
24586;BMP280;12743;52.262;6.172;2023-04-06T13:54:54;100373.69;;;8.60
24586;BMP280;12743;52.262;6.172;2023-04-06T13:57:20;100351.97;;;8.60
24586;BMP280;12743;52.262;6.172;2023-04-06T13:59:47;100343.38;;;8.51
24586;BMP280;12743;52.262;6.172;2023-04-06T14:02:16;100344.38;;;8.46
24586;BMP280;12743;52.262;6.172;2023-04-06T14:04:43;100315.94;;;8.36
24586;BMP280;12743;52.262;6.172;2023-04-06T14:07:09;100311.34;;;8.33
24586;BMP280;12743;52.262;6.172;2023-04-06T14:09:35;100307.94;;;8.33
24586;BMP280;12743;52.262;6.172;2023-04-06T14:12:02;100305.78;;;8.35
24586;BMP280;12743;52.262;6.172;2023-04-06T14:14:29;100271.31;;;8.33
24586;BMP280;12743;52.262;6.172;2023-04-06T14:16:55;100276.16;;;8.22
24586;BMP280;12743;52.262;6.172;2023-04-06T14:19:22;100258.91;;;8.21
24586;BMP280;12743;52.262;6.172;2023-04-06T14:21:48;100238.84;;;8.34
24586;BMP280;12743;52.262;6.172;2023-04-06T14:24:17;100236.91;;;8.22
24586;BMP280;12743;52.262;6.172;2023-04-06T14:26:44;100221.03;;;8.27
24586;BMP280;12743;52.262;6.172;2023-04-06T14:29:10;100223.69;;;8.19